sensor_id;sensor_type;location;lat;lon;timestamp;P1;durP1;ratioP1;P2;durP2;ratioP2
69894;SDS011;57172;52.034;5.090;2022-10-16T00:00:57;6.95;;;2.70;;
69894;SDS011;57172;52.034;5.090;2022-10-16T00:03:24;5.43;;;2.55;;
69894;SDS011;57172;52.034;5.090;2022-10-16T00:05:58;4.83;;;2.17;;
69894;SDS011;57172;52.034;5.090;2022-10-16T00:08:26;5.50;;;2.47;;
69894;SDS011;57172;52.034;5.090;2022-10-16T00:10:58;4.70;;;2.10;;
69894;SDS011;57172;52.034;5.090;2022-10-16T00:13:25;5.72;;;2.58;;
69894;SDS011;57172;52.034;5.090;2022-10-16T00:15:54;9.48;;;2.60;;
69894;SDS011;57172;52.034;5.090;2022-10-16T00:18:22;6.77;;;2.57;;
69894;SDS011;57172;52.034;5.090;2022-10-16T00:20:50;8.07;;;2.67;;
69894;SDS011;57172;52.034;5.090;2022-10-16T00:23:17;6.75;;;2.72;;
69894;SDS011;57172;52.034;5.090;2022-10-16T00:25:45;6.65;;;2.58;;
69894;SDS011;57172;52.034;5.090;2022-10-16T00:28:20;7.70;;;3.03;;
69894;SDS011;57172;52.034;5.090;2022-10-16T00:30:47;4.07;;;2.40;;
69894;SDS011;57172;52.034;5.090;2022-10-16T00:33:14;4.85;;;2.80;;
69894;SDS011;57172;52.034;5.090;2022-10-16T00:35:41;9.45;;;3.13;;
69894;SDS011;57172;52.034;5.090;2022-10-16T00:38:07;5.80;;;2.75;;
69894;SDS011;57172;52.034;5.090;2022-10-16T00:40:34;8.93;;;3.13;;
69894;SDS011;57172;52.034;5.090;2022-10-16T00:43:01;6.27;;;2.90;;
69894;SDS011;57172;52.034;5.090;2022-10-16T00:45:28;7.18;;;2.83;;
69894;SDS011;57172;52.034;5.090;2022-10-16T00:47:56;8.88;;;3.17;;
69894;SDS011;57172;52.034;5.090;2022-10-16T00:50:27;7.03;;;2.65;;
69894;SDS011;57172;52.034;5.090;2022-10-16T00:52:57;7.20;;;2.92;;
69894;SDS011;57172;52.034;5.090;2022-10-16T00:55:27;6.40;;;2.87;;
69894;SDS011;57172;52.034;5.090;2022-10-16T00:57:56;4.20;;;2.20;;
69894;SDS011;57172;52.034;5.090;2022-10-16T01:00:25;5.03;;;2.90;;
69894;SDS011;57172;52.034;5.090;2022-10-16T01:02:57;6.50;;;3.10;;
69894;SDS011;57172;52.034;5.090;2022-10-16T01:05:29;5.68;;;2.85;;
69894;SDS011;57172;52.034;5.090;2022-10-16T01:08:08;6.83;;;3.00;;
69894;SDS011;57172;52.034;5.090;2022-10-16T01:10:47;6.82;;;2.92;;
69894;SDS011;57172;52.034;5.090;2022-10-16T01:21:22;7.53;;;2.90;;
69894;SDS011;57172;52.034;5.090;2022-10-16T01:24:03;5.78;;;2.90;;
69894;SDS011;57172;52.034;5.090;2022-10-16T01:29:24;5.57;;;2.90;;
69894;SDS011;57172;52.034;5.090;2022-10-16T01:31:57;7.13;;;3.05;;
69894;SDS011;57172;52.034;5.090;2022-10-16T01:34:38;6.20;;;2.90;;
69894;SDS011;57172;52.034;5.090;2022-10-16T01:40:09;6.25;;;3.35;;
69894;SDS011;57172;52.034;5.090;2022-10-16T01:42:39;5.68;;;2.60;;
69894;SDS011;57172;52.034;5.090;2022-10-16T01:45:11;5.28;;;2.85;;
69894;SDS011;57172;52.034;5.090;2022-10-16T01:47:40;5.20;;;2.70;;
69894;SDS011;57172;52.034;5.090;2022-10-16T01:50:10;5.47;;;2.85;;
69894;SDS011;57172;52.034;5.090;2022-10-16T01:52:39;7.25;;;3.40;;
69894;SDS011;57172;52.034;5.090;2022-10-16T01:55:10;6.75;;;3.00;;
69894;SDS011;57172;52.034;5.090;2022-10-16T01:57:41;5.25;;;3.28;;
69894;SDS011;57172;52.034;5.090;2022-10-16T02:00:12;7.30;;;2.63;;
69894;SDS011;57172;52.034;5.090;2022-10-16T02:02:44;7.38;;;3.08;;
69894;SDS011;57172;52.034;5.090;2022-10-16T02:05:31;6.28;;;3.08;;
69894;SDS011;57172;52.034;5.090;2022-10-16T02:08:10;6.38;;;3.20;;
69894;SDS011;57172;52.034;5.090;2022-10-16T02:10:37;7.07;;;3.30;;
69894;SDS011;57172;52.034;5.090;2022-10-16T02:15:40;5.30;;;3.00;;
69894;SDS011;57172;52.034;5.090;2022-10-16T02:18:07;7.75;;;3.22;;
69894;SDS011;57172;52.034;5.090;2022-10-16T02:21:21;6.97;;;3.30;;
69894;SDS011;57172;52.034;5.090;2022-10-16T02:24:02;6.45;;;2.97;;
69894;SDS011;57172;52.034;5.090;2022-10-16T02:26:37;6.30;;;3.23;;
69894;SDS011;57172;52.034;5.090;2022-10-16T02:29:07;5.00;;;2.90;;
69894;SDS011;57172;52.034;5.090;2022-10-16T02:31:38;6.15;;;3.40;;
69894;SDS011;57172;52.034;5.090;2022-10-16T02:34:10;5.70;;;3.15;;
69894;SDS011;57172;52.034;5.090;2022-10-16T02:36:39;6.53;;;3.00;;
69894;SDS011;57172;52.034;5.090;2022-10-16T02:39:08;5.43;;;3.00;;
69894;SDS011;57172;52.034;5.090;2022-10-16T02:41:35;7.60;;;2.85;;
69894;SDS011;57172;52.034;5.090;2022-10-16T02:44:02;5.80;;;3.00;;
69894;SDS011;57172;52.034;5.090;2022-10-16T02:46:29;5.88;;;3.00;;
69894;SDS011;57172;52.034;5.090;2022-10-16T02:48:56;4.15;;;2.70;;
69894;SDS011;57172;52.034;5.090;2022-10-16T02:51:23;4.73;;;2.53;;
69894;SDS011;57172;52.034;5.090;2022-10-16T02:53:50;4.82;;;2.85;;
69894;SDS011;57172;52.034;5.090;2022-10-16T02:56:17;5.30;;;2.92;;
69894;SDS011;57172;52.034;5.090;2022-10-16T02:58:44;6.10;;;2.88;;
69894;SDS011;57172;52.034;5.090;2022-10-16T03:01:11;5.57;;;2.80;;
69894;SDS011;57172;52.034;5.090;2022-10-16T03:03:40;4.60;;;2.60;;
69894;SDS011;57172;52.034;5.090;2022-10-16T03:06:07;5.22;;;2.50;;
69894;SDS011;57172;52.034;5.090;2022-10-16T03:08:34;4.68;;;2.20;;
69894;SDS011;57172;52.034;5.090;2022-10-16T03:11:00;5.20;;;2.50;;
69894;SDS011;57172;52.034;5.090;2022-10-16T03:13:27;6.45;;;2.70;;
69894;SDS011;57172;52.034;5.090;2022-10-16T03:15:54;3.57;;;2.40;;
69894;SDS011;57172;52.034;5.090;2022-10-16T03:18:21;5.75;;;2.63;;
69894;SDS011;57172;52.034;5.090;2022-10-16T03:20:48;4.97;;;2.55;;
69894;SDS011;57172;52.034;5.090;2022-10-16T03:23:15;4.75;;;2.50;;
69894;SDS011;57172;52.034;5.090;2022-10-16T03:25:41;4.00;;;2.40;;
69894;SDS011;57172;52.034;5.090;2022-10-16T03:28:08;2.73;;;2.00;;
69894;SDS011;57172;52.034;5.090;2022-10-16T03:30:35;5.18;;;2.50;;
69894;SDS011;57172;52.034;5.090;2022-10-16T03:33:02;4.38;;;2.25;;
69894;SDS011;57172;52.034;5.090;2022-10-16T03:35:29;5.38;;;2.70;;
69894;SDS011;57172;52.034;5.090;2022-10-16T03:37:56;7.45;;;2.60;;
69894;SDS011;57172;52.034;5.090;2022-10-16T03:40:23;5.37;;;2.50;;
69894;SDS011;57172;52.034;5.090;2022-10-16T03:42:49;4.93;;;2.55;;
69894;SDS011;57172;52.034;5.090;2022-10-16T03:45:16;6.28;;;2.53;;
69894;SDS011;57172;52.034;5.090;2022-10-16T03:47:43;4.13;;;2.47;;
69894;SDS011;57172;52.034;5.090;2022-10-16T03:50:10;6.00;;;2.45;;
69894;SDS011;57172;52.034;5.090;2022-10-16T03:52:37;6.10;;;2.73;;
69894;SDS011;57172;52.034;5.090;2022-10-16T03:55:04;4.05;;;2.20;;
69894;SDS011;57172;52.034;5.090;2022-10-16T03:57:31;4.53;;;2.58;;
69894;SDS011;57172;52.034;5.090;2022-10-16T03:59:57;6.20;;;2.50;;
69894;SDS011;57172;52.034;5.090;2022-10-16T04:02:24;6.57;;;2.30;;
69894;SDS011;57172;52.034;5.090;2022-10-16T04:04:51;4.83;;;2.50;;
69894;SDS011;57172;52.034;5.090;2022-10-16T04:07:18;4.82;;;2.10;;
69894;SDS011;57172;52.034;5.090;2022-10-16T04:09:45;5.43;;;2.30;;
69894;SDS011;57172;52.034;5.090;2022-10-16T04:12:12;6.97;;;2.40;;
69894;SDS011;57172;52.034;5.090;2022-10-16T04:14:39;3.92;;;2.20;;
69894;SDS011;57172;52.034;5.090;2022-10-16T04:17:06;6.20;;;2.30;;
69894;SDS011;57172;52.034;5.090;2022-10-16T04:19:33;4.60;;;2.30;;
69894;SDS011;57172;52.034;5.090;2022-10-16T04:22:00;5.70;;;2.40;;
69894;SDS011;57172;52.034;5.090;2022-10-16T04:24:26;5.32;;;2.35;;
69894;SDS011;57172;52.034;5.090;2022-10-16T04:26:53;6.25;;;2.10;;
69894;SDS011;57172;52.034;5.090;2022-10-16T04:29:20;4.07;;;2.30;;
69894;SDS011;57172;52.034;5.090;2022-10-16T04:31:47;5.15;;;2.30;;
69894;SDS011;57172;52.034;5.090;2022-10-16T04:34:14;4.38;;;2.30;;
69894;SDS011;57172;52.034;5.090;2022-10-16T04:36:41;3.70;;;2.20;;
69894;SDS011;57172;52.034;5.090;2022-10-16T04:39:08;6.35;;;2.45;;
69894;SDS011;57172;52.034;5.090;2022-10-16T04:41:34;4.63;;;2.20;;
69894;SDS011;57172;52.034;5.090;2022-10-16T04:44:01;4.95;;;2.33;;
69894;SDS011;57172;52.034;5.090;2022-10-16T04:46:28;4.75;;;2.28;;
69894;SDS011;57172;52.034;5.090;2022-10-16T04:48:55;5.15;;;2.28;;
69894;SDS011;57172;52.034;5.090;2022-10-16T04:51:22;4.13;;;2.28;;
69894;SDS011;57172;52.034;5.090;2022-10-16T04:53:49;4.33;;;2.20;;
69894;SDS011;57172;52.034;5.090;2022-10-16T04:56:16;5.60;;;2.30;;
69894;SDS011;57172;52.034;5.090;2022-10-16T04:58:42;5.07;;;1.98;;
69894;SDS011;57172;52.034;5.090;2022-10-16T05:01:09;3.88;;;2.45;;
69894;SDS011;57172;52.034;5.090;2022-10-16T05:03:36;5.00;;;2.53;;
69894;SDS011;57172;52.034;5.090;2022-10-16T05:06:04;4.83;;;2.33;;
69894;SDS011;57172;52.034;5.090;2022-10-16T05:08:32;3.72;;;2.20;;
69894;SDS011;57172;52.034;5.090;2022-10-16T05:10:59;4.32;;;2.60;;
69894;SDS011;57172;52.034;5.090;2022-10-16T05:13:26;6.88;;;2.60;;
69894;SDS011;57172;52.034;5.090;2022-10-16T05:15:53;5.00;;;2.60;;
69894;SDS011;57172;52.034;5.090;2022-10-16T05:18:20;3.93;;;2.40;;
69894;SDS011;57172;52.034;5.090;2022-10-16T05:20:47;4.93;;;2.53;;
69894;SDS011;57172;52.034;5.090;2022-10-16T05:23:13;4.68;;;2.60;;
69894;SDS011;57172;52.034;5.090;2022-10-16T05:25:40;7.38;;;2.72;;
69894;SDS011;57172;52.034;5.090;2022-10-16T05:28:07;5.50;;;2.72;;
69894;SDS011;57172;52.034;5.090;2022-10-16T05:30:34;6.33;;;2.57;;
69894;SDS011;57172;52.034;5.090;2022-10-16T05:33:03;5.53;;;2.78;;
69894;SDS011;57172;52.034;5.090;2022-10-16T05:35:30;9.27;;;2.75;;
69894;SDS011;57172;52.034;5.090;2022-10-16T05:37:57;5.32;;;2.90;;
69894;SDS011;57172;52.034;5.090;2022-10-16T05:40:24;6.95;;;2.72;;
69894;SDS011;57172;52.034;5.090;2022-10-16T05:42:54;6.23;;;2.70;;
69894;SDS011;57172;52.034;5.090;2022-10-16T05:45:21;5.50;;;2.80;;
69894;SDS011;57172;52.034;5.090;2022-10-16T05:47:48;6.05;;;2.90;;
69894;SDS011;57172;52.034;5.090;2022-10-16T05:50:15;5.40;;;2.90;;
69894;SDS011;57172;52.034;5.090;2022-10-16T05:52:41;5.82;;;2.83;;
69894;SDS011;57172;52.034;5.090;2022-10-16T05:55:08;4.77;;;2.80;;
69894;SDS011;57172;52.034;5.090;2022-10-16T05:57:35;7.85;;;2.70;;
69894;SDS011;57172;52.034;5.090;2022-10-16T06:00:03;5.05;;;3.08;;
69894;SDS011;57172;52.034;5.090;2022-10-16T06:02:37;5.95;;;3.00;;
69894;SDS011;57172;52.034;5.090;2022-10-16T06:05:04;4.95;;;2.92;;
69894;SDS011;57172;52.034;5.090;2022-10-16T06:07:33;4.73;;;2.60;;
69894;SDS011;57172;52.034;5.090;2022-10-16T06:10:02;8.23;;;3.22;;
69894;SDS011;57172;52.034;5.090;2022-10-16T06:12:30;5.72;;;2.75;;
69894;SDS011;57172;52.034;5.090;2022-10-16T06:14:57;4.15;;;2.80;;
69894;SDS011;57172;52.034;5.090;2022-10-16T06:17:23;7.15;;;3.40;;
69894;SDS011;57172;52.034;5.090;2022-10-16T06:19:51;4.67;;;2.80;;
69894;SDS011;57172;52.034;5.090;2022-10-16T06:22:18;6.60;;;2.97;;
69894;SDS011;57172;52.034;5.090;2022-10-16T06:24:45;4.85;;;2.97;;
69894;SDS011;57172;52.034;5.090;2022-10-16T06:27:12;6.78;;;2.83;;
69894;SDS011;57172;52.034;5.090;2022-10-16T06:29:39;5.43;;;3.00;;
69894;SDS011;57172;52.034;5.090;2022-10-16T06:32:06;8.33;;;2.87;;
69894;SDS011;57172;52.034;5.090;2022-10-16T06:34:32;7.15;;;2.97;;
69894;SDS011;57172;52.034;5.090;2022-10-16T06:37:00;6.75;;;3.10;;
69894;SDS011;57172;52.034;5.090;2022-10-16T06:39:27;7.32;;;2.60;;
69894;SDS011;57172;52.034;5.090;2022-10-16T06:41:54;4.93;;;2.80;;
69894;SDS011;57172;52.034;5.090;2022-10-16T06:44:23;6.33;;;2.70;;
69894;SDS011;57172;52.034;5.090;2022-10-16T06:46:50;4.82;;;2.28;;
69894;SDS011;57172;52.034;5.090;2022-10-16T06:49:17;6.05;;;2.50;;
69894;SDS011;57172;52.034;5.090;2022-10-16T06:51:48;6.70;;;2.60;;
69894;SDS011;57172;52.034;5.090;2022-10-16T06:54:15;7.25;;;2.75;;
69894;SDS011;57172;52.034;5.090;2022-10-16T06:56:43;5.87;;;2.50;;
69894;SDS011;57172;52.034;5.090;2022-10-16T06:59:10;6.88;;;2.60;;
69894;SDS011;57172;52.034;5.090;2022-10-16T07:01:37;6.45;;;2.20;;
69894;SDS011;57172;52.034;5.090;2022-10-16T07:04:04;5.85;;;2.10;;
69894;SDS011;57172;52.034;5.090;2022-10-16T07:06:32;5.05;;;2.40;;
69894;SDS011;57172;52.034;5.090;2022-10-16T07:09:01;4.40;;;2.10;;
69894;SDS011;57172;52.034;5.090;2022-10-16T07:11:32;5.40;;;2.10;;
69894;SDS011;57172;52.034;5.090;2022-10-16T07:13:59;5.63;;;1.88;;
69894;SDS011;57172;52.034;5.090;2022-10-16T07:16:27;5.90;;;2.00;;
69894;SDS011;57172;52.034;5.090;2022-10-16T07:18:55;7.57;;;2.20;;
69894;SDS011;57172;52.034;5.090;2022-10-16T07:21:30;5.57;;;2.10;;
69894;SDS011;57172;52.034;5.090;2022-10-16T07:24:02;4.43;;;2.30;;
69894;SDS011;57172;52.034;5.090;2022-10-16T07:26:32;4.85;;;2.13;;
69894;SDS011;57172;52.034;5.090;2022-10-16T07:29:01;8.07;;;2.58;;
69894;SDS011;57172;52.034;5.090;2022-10-16T07:31:29;5.53;;;2.55;;
69894;SDS011;57172;52.034;5.090;2022-10-16T07:33:57;8.03;;;2.60;;
69894;SDS011;57172;52.034;5.090;2022-10-16T07:36:25;8.93;;;2.60;;
69894;SDS011;57172;52.034;5.090;2022-10-16T07:38:52;5.03;;;2.42;;
69894;SDS011;57172;52.034;5.090;2022-10-16T07:41:25;6.57;;;2.90;;
69894;SDS011;57172;52.034;5.090;2022-10-16T07:43:52;5.85;;;2.72;;
69894;SDS011;57172;52.034;5.090;2022-10-16T07:46:21;3.17;;;2.07;;
69894;SDS011;57172;52.034;5.090;2022-10-16T07:48:49;6.30;;;2.55;;
69894;SDS011;57172;52.034;5.090;2022-10-16T07:51:17;6.68;;;2.80;;
69894;SDS011;57172;52.034;5.090;2022-10-16T07:53:46;5.35;;;2.67;;
69894;SDS011;57172;52.034;5.090;2022-10-16T07:56:13;6.35;;;2.42;;
69894;SDS011;57172;52.034;5.090;2022-10-16T07:58:40;3.57;;;1.97;;
69894;SDS011;57172;52.034;5.090;2022-10-16T08:01:08;7.25;;;2.60;;
69894;SDS011;57172;52.034;5.090;2022-10-16T08:03:37;6.32;;;2.70;;
69894;SDS011;57172;52.034;5.090;2022-10-16T08:06:04;4.43;;;2.50;;
69894;SDS011;57172;52.034;5.090;2022-10-16T08:08:31;5.18;;;2.50;;
69894;SDS011;57172;52.034;5.090;2022-10-16T08:10:58;4.23;;;2.43;;
69894;SDS011;57172;52.034;5.090;2022-10-16T08:13:25;6.32;;;2.45;;
69894;SDS011;57172;52.034;5.090;2022-10-16T08:15:53;4.15;;;2.28;;
69894;SDS011;57172;52.034;5.090;2022-10-16T08:18:20;4.13;;;2.13;;
69894;SDS011;57172;52.034;5.090;2022-10-16T08:20:47;4.82;;;2.00;;
69894;SDS011;57172;52.034;5.090;2022-10-16T08:23:14;6.33;;;2.27;;
69894;SDS011;57172;52.034;5.090;2022-10-16T08:25:41;4.35;;;2.00;;
69894;SDS011;57172;52.034;5.090;2022-10-16T08:28:08;6.43;;;2.67;;
69894;SDS011;57172;52.034;5.090;2022-10-16T08:30:37;6.53;;;2.05;;
69894;SDS011;57172;52.034;5.090;2022-10-16T08:33:04;7.22;;;2.10;;
69894;SDS011;57172;52.034;5.090;2022-10-16T08:35:32;6.43;;;2.23;;
69894;SDS011;57172;52.034;5.090;2022-10-16T08:37:59;5.28;;;1.95;;
69894;SDS011;57172;52.034;5.090;2022-10-16T08:40:29;6.35;;;2.20;;
69894;SDS011;57172;52.034;5.090;2022-10-16T08:43:08;5.93;;;2.13;;
69894;SDS011;57172;52.034;5.090;2022-10-16T08:45:41;9.88;;;2.30;;
69894;SDS011;57172;52.034;5.090;2022-10-16T08:54:21;6.10;;;2.20;;
69894;SDS011;57172;52.034;5.090;2022-10-16T08:57:06;6.82;;;2.10;;
69894;SDS011;57172;52.034;5.090;2022-10-16T08:59:37;4.05;;;2.00;;
69894;SDS011;57172;52.034;5.090;2022-10-16T09:02:11;5.07;;;2.07;;
69894;SDS011;57172;52.034;5.090;2022-10-16T09:13:43;6.68;;;2.28;;
69894;SDS011;57172;52.034;5.090;2022-10-16T09:16:29;5.80;;;2.13;;
69894;SDS011;57172;52.034;5.090;2022-10-16T09:19:09;8.18;;;2.05;;
69894;SDS011;57172;52.034;5.090;2022-10-16T09:21:45;4.57;;;1.85;;
69894;SDS011;57172;52.034;5.090;2022-10-16T09:24:15;6.15;;;2.20;;
69894;SDS011;57172;52.034;5.090;2022-10-16T09:26:45;6.35;;;2.08;;
69894;SDS011;57172;52.034;5.090;2022-10-16T09:29:13;7.17;;;2.03;;
69894;SDS011;57172;52.034;5.090;2022-10-16T09:31:42;6.22;;;2.00;;
69894;SDS011;57172;52.034;5.090;2022-10-16T09:36:54;8.43;;;2.22;;
69894;SDS011;57172;52.034;5.090;2022-10-16T09:39:23;7.32;;;2.10;;
69894;SDS011;57172;52.034;5.090;2022-10-16T09:41:50;7.47;;;2.13;;
69894;SDS011;57172;52.034;5.090;2022-10-16T09:44:24;5.85;;;1.98;;
69894;SDS011;57172;52.034;5.090;2022-10-16T09:47:01;7.97;;;2.25;;
69894;SDS011;57172;52.034;5.090;2022-10-16T09:49:29;9.23;;;2.40;;
69894;SDS011;57172;52.034;5.090;2022-10-16T09:52:11;8.00;;;2.38;;
69894;SDS011;57172;52.034;5.090;2022-10-16T09:54:52;6.47;;;1.90;;
69894;SDS011;57172;52.034;5.090;2022-10-16T09:57:24;6.55;;;2.30;;
69894;SDS011;57172;52.034;5.090;2022-10-16T09:59:55;7.53;;;2.67;;
69894;SDS011;57172;52.034;5.090;2022-10-16T10:02:28;8.95;;;2.30;;
69894;SDS011;57172;52.034;5.090;2022-10-16T10:05:04;8.30;;;2.30;;
69894;SDS011;57172;52.034;5.090;2022-10-16T10:07:42;6.20;;;2.17;;
69894;SDS011;57172;52.034;5.090;2022-10-16T10:10:26;7.85;;;2.30;;
69894;SDS011;57172;52.034;5.090;2022-10-16T10:12:54;10.23;;;2.33;;
69894;SDS011;57172;52.034;5.090;2022-10-16T10:15:22;7.97;;;2.28;;
69894;SDS011;57172;52.034;5.090;2022-10-16T10:17:51;9.45;;;2.38;;
69894;SDS011;57172;52.034;5.090;2022-10-16T10:20:29;5.07;;;2.10;;
69894;SDS011;57172;52.034;5.090;2022-10-16T10:23:20;7.45;;;2.10;;
69894;SDS011;57172;52.034;5.090;2022-10-16T10:25:52;6.95;;;2.35;;
69894;SDS011;57172;52.034;5.090;2022-10-16T10:28:39;10.98;;;2.20;;
69894;SDS011;57172;52.034;5.090;2022-10-16T10:31:12;6.30;;;2.20;;
69894;SDS011;57172;52.034;5.090;2022-10-16T10:33:48;7.67;;;2.17;;
69894;SDS011;57172;52.034;5.090;2022-10-16T10:42:08;7.85;;;2.15;;
69894;SDS011;57172;52.034;5.090;2022-10-16T10:45:26;7.97;;;2.20;;
69894;SDS011;57172;52.034;5.090;2022-10-16T10:50:25;6.20;;;2.03;;
69894;SDS011;57172;52.034;5.090;2022-10-16T10:53:21;8.07;;;2.35;;
69894;SDS011;57172;52.034;5.090;2022-10-16T11:02:02;9.00;;;2.30;;
69894;SDS011;57172;52.034;5.090;2022-10-16T11:07:11;7.65;;;2.30;;
69894;SDS011;57172;52.034;5.090;2022-10-16T11:09:48;6.38;;;1.95;;
69894;SDS011;57172;52.034;5.090;2022-10-16T11:12:21;8.85;;;2.20;;
69894;SDS011;57172;52.034;5.090;2022-10-16T11:15:11;4.30;;;1.80;;
69894;SDS011;57172;52.034;5.090;2022-10-16T11:17:44;7.85;;;1.92;;
69894;SDS011;57172;52.034;5.090;2022-10-16T11:22:48;8.00;;;2.28;;
69894;SDS011;57172;52.034;5.090;2022-10-16T11:25:23;10.70;;;2.17;;
69894;SDS011;57172;52.034;5.090;2022-10-16T11:30:47;7.22;;;2.00;;
69894;SDS011;57172;52.034;5.090;2022-10-16T11:35:53;6.90;;;1.90;;
69894;SDS011;57172;52.034;5.090;2022-10-16T11:40:59;9.97;;;2.03;;
69894;SDS011;57172;52.034;5.090;2022-10-16T11:43:32;6.18;;;1.90;;
69894;SDS011;57172;52.034;5.090;2022-10-16T11:46:07;6.13;;;1.88;;
69894;SDS011;57172;52.034;5.090;2022-10-16T11:54:28;5.90;;;1.80;;
69894;SDS011;57172;52.034;5.090;2022-10-16T11:57:12;5.63;;;1.88;;
69894;SDS011;57172;52.034;5.090;2022-10-16T11:59:47;5.57;;;2.00;;
69894;SDS011;57172;52.034;5.090;2022-10-16T12:02:43;7.05;;;2.00;;
69894;SDS011;57172;52.034;5.090;2022-10-16T12:08:08;7.77;;;2.07;;
69894;SDS011;57172;52.034;5.090;2022-10-16T12:10:37;10.50;;;2.30;;
69894;SDS011;57172;52.034;5.090;2022-10-16T12:18:42;7.25;;;2.00;;
69894;SDS011;57172;52.034;5.090;2022-10-16T12:21:12;8.77;;;1.90;;
69894;SDS011;57172;52.034;5.090;2022-10-16T12:23:52;9.57;;;2.00;;
69894;SDS011;57172;52.034;5.090;2022-10-16T12:26:40;8.07;;;1.92;;
69894;SDS011;57172;52.034;5.090;2022-10-16T12:32:06;7.63;;;1.70;;
69894;SDS011;57172;52.034;5.090;2022-10-16T12:35:18;7.20;;;2.10;;
69894;SDS011;57172;52.034;5.090;2022-10-16T12:40:44;12.85;;;2.10;;
69894;SDS011;57172;52.034;5.090;2022-10-16T12:43:28;8.63;;;2.22;;
69894;SDS011;57172;52.034;5.090;2022-10-16T12:46:05;7.30;;;1.92;;
69894;SDS011;57172;52.034;5.090;2022-10-16T12:48:35;11.00;;;2.37;;
69894;SDS011;57172;52.034;5.090;2022-10-16T12:59:53;10.85;;;2.13;;
69894;SDS011;57172;52.034;5.090;2022-10-16T13:11:08;7.97;;;2.28;;
69894;SDS011;57172;52.034;5.090;2022-10-16T13:19:03;9.57;;;2.13;;
69894;SDS011;57172;52.034;5.090;2022-10-16T13:21:47;9.55;;;2.30;;
69894;SDS011;57172;52.034;5.090;2022-10-16T13:30:02;7.70;;;2.00;;
69894;SDS011;57172;52.034;5.090;2022-10-16T13:32:38;6.57;;;1.70;;
69894;SDS011;57172;52.034;5.090;2022-10-16T13:35:18;9.80;;;2.20;;
69894;SDS011;57172;52.034;5.090;2022-10-16T13:37:47;6.43;;;2.05;;
69894;SDS011;57172;52.034;5.090;2022-10-16T13:40:21;7.63;;;2.13;;
69894;SDS011;57172;52.034;5.090;2022-10-16T13:42:50;9.47;;;2.00;;
69894;SDS011;57172;52.034;5.090;2022-10-16T13:45:23;8.57;;;2.20;;
69894;SDS011;57172;52.034;5.090;2022-10-16T13:48:04;7.25;;;2.13;;
69894;SDS011;57172;52.034;5.090;2022-10-16T13:50:32;9.82;;;2.22;;
69894;SDS011;57172;52.034;5.090;2022-10-16T13:53:14;9.43;;;2.25;;
69894;SDS011;57172;52.034;5.090;2022-10-16T13:55:41;8.47;;;2.07;;
69894;SDS011;57172;52.034;5.090;2022-10-16T13:58:10;12.05;;;2.40;;
69894;SDS011;57172;52.034;5.090;2022-10-16T14:00:39;8.65;;;2.15;;
69894;SDS011;57172;52.034;5.090;2022-10-16T14:03:19;10.93;;;2.08;;
69894;SDS011;57172;52.034;5.090;2022-10-16T14:05:47;8.60;;;1.98;;
69894;SDS011;57172;52.034;5.090;2022-10-16T14:08:19;9.10;;;1.80;;
69894;SDS011;57172;52.034;5.090;2022-10-16T14:10:47;7.05;;;2.17;;
69894;SDS011;57172;52.034;5.090;2022-10-16T14:13:28;9.20;;;1.92;;
69894;SDS011;57172;52.034;5.090;2022-10-16T14:15:58;6.75;;;2.03;;
69894;SDS011;57172;52.034;5.090;2022-10-16T14:18:28;8.95;;;2.22;;
69894;SDS011;57172;52.034;5.090;2022-10-16T14:21:07;8.33;;;2.20;;
69894;SDS011;57172;52.034;5.090;2022-10-16T14:23:40;9.07;;;2.10;;
69894;SDS011;57172;52.034;5.090;2022-10-16T14:28:35;9.65;;;1.92;;
69894;SDS011;57172;52.034;5.090;2022-10-16T14:31:17;11.43;;;2.10;;
69894;SDS011;57172;52.034;5.090;2022-10-16T14:33:52;9.77;;;2.60;;
69894;SDS011;57172;52.034;5.090;2022-10-16T14:36:19;6.90;;;2.03;;
69894;SDS011;57172;52.034;5.090;2022-10-16T14:41:31;9.18;;;2.22;;
69894;SDS011;57172;52.034;5.090;2022-10-16T14:44:09;13.80;;;2.40;;
69894;SDS011;57172;52.034;5.090;2022-10-16T14:46:38;8.00;;;2.60;;
69894;SDS011;57172;52.034;5.090;2022-10-16T14:51:37;7.25;;;2.33;;
69894;SDS011;57172;52.034;5.090;2022-10-16T14:54:10;10.60;;;2.03;;
69894;SDS011;57172;52.034;5.090;2022-10-16T14:59:27;8.73;;;2.03;;
69894;SDS011;57172;52.034;5.090;2022-10-16T15:02:25;8.15;;;2.15;;
69894;SDS011;57172;52.034;5.090;2022-10-16T15:07:38;12.30;;;2.30;;
69894;SDS011;57172;52.034;5.090;2022-10-16T15:10:05;8.55;;;2.20;;
69894;SDS011;57172;52.034;5.090;2022-10-16T15:12:32;10.63;;;2.10;;
69894;SDS011;57172;52.034;5.090;2022-10-16T15:14:59;9.60;;;2.13;;
69894;SDS011;57172;52.034;5.090;2022-10-16T15:17:25;12.77;;;2.50;;
69894;SDS011;57172;52.034;5.090;2022-10-16T15:19:53;11.60;;;2.25;;
69894;SDS011;57172;52.034;5.090;2022-10-16T15:22:20;7.20;;;1.95;;
69894;SDS011;57172;52.034;5.090;2022-10-16T15:24:49;6.83;;;2.30;;
69894;SDS011;57172;52.034;5.090;2022-10-16T15:27:16;12.40;;;2.30;;
69894;SDS011;57172;52.034;5.090;2022-10-16T15:29:43;8.35;;;2.03;;
69894;SDS011;57172;52.034;5.090;2022-10-16T15:32:10;9.27;;;1.98;;
69894;SDS011;57172;52.034;5.090;2022-10-16T15:34:37;12.43;;;2.42;;
69894;SDS011;57172;52.034;5.090;2022-10-16T15:37:04;8.90;;;2.37;;
69894;SDS011;57172;52.034;5.090;2022-10-16T15:39:30;6.35;;;2.13;;
69894;SDS011;57172;52.034;5.090;2022-10-16T15:41:57;8.40;;;2.13;;
69894;SDS011;57172;52.034;5.090;2022-10-16T15:44:24;10.27;;;2.30;;
69894;SDS011;57172;52.034;5.090;2022-10-16T15:46:55;11.00;;;2.15;;
69894;SDS011;57172;52.034;5.090;2022-10-16T15:49:22;11.03;;;2.50;;
69894;SDS011;57172;52.034;5.090;2022-10-16T15:51:49;7.72;;;2.40;;
69894;SDS011;57172;52.034;5.090;2022-10-16T15:54:16;9.13;;;2.33;;
69894;SDS011;57172;52.034;5.090;2022-10-16T15:56:44;10.23;;;2.70;;
69894;SDS011;57172;52.034;5.090;2022-10-16T15:59:12;9.90;;;2.30;;
69894;SDS011;57172;52.034;5.090;2022-10-16T16:01:38;10.00;;;2.67;;
69894;SDS011;57172;52.034;5.090;2022-10-16T16:04:05;8.35;;;2.42;;
69894;SDS011;57172;52.034;5.090;2022-10-16T16:06:50;9.13;;;2.10;;
69894;SDS011;57172;52.034;5.090;2022-10-16T16:09:17;8.63;;;2.13;;
69894;SDS011;57172;52.034;5.090;2022-10-16T16:11:44;10.02;;;2.40;;
69894;SDS011;57172;52.034;5.090;2022-10-16T16:14:13;8.50;;;2.30;;
69894;SDS011;57172;52.034;5.090;2022-10-16T16:16:41;9.68;;;2.50;;
69894;SDS011;57172;52.034;5.090;2022-10-16T16:19:08;7.13;;;2.20;;
69894;SDS011;57172;52.034;5.090;2022-10-16T16:21:37;10.35;;;2.90;;
69894;SDS011;57172;52.034;5.090;2022-10-16T16:24:04;8.40;;;2.60;;
69894;SDS011;57172;52.034;5.090;2022-10-16T16:26:35;8.57;;;2.60;;
69894;SDS011;57172;52.034;5.090;2022-10-16T16:29:05;9.15;;;2.63;;
69894;SDS011;57172;52.034;5.090;2022-10-16T16:31:33;10.02;;;2.60;;
69894;SDS011;57172;52.034;5.090;2022-10-16T16:34:00;9.45;;;3.03;;
69894;SDS011;57172;52.034;5.090;2022-10-16T16:36:27;8.77;;;3.17;;
69894;SDS011;57172;52.034;5.090;2022-10-16T16:38:55;10.37;;;3.10;;
69894;SDS011;57172;52.034;5.090;2022-10-16T16:41:24;9.35;;;2.80;;
69894;SDS011;57172;52.034;5.090;2022-10-16T16:43:52;8.70;;;2.95;;
69894;SDS011;57172;52.034;5.090;2022-10-16T16:46:21;8.63;;;2.88;;
69894;SDS011;57172;52.034;5.090;2022-10-16T16:48:48;8.75;;;2.63;;
69894;SDS011;57172;52.034;5.090;2022-10-16T16:51:19;6.93;;;2.67;;
69894;SDS011;57172;52.034;5.090;2022-10-16T16:53:47;10.02;;;2.80;;
69894;SDS011;57172;52.034;5.090;2022-10-16T16:56:16;10.60;;;3.00;;
69894;SDS011;57172;52.034;5.090;2022-10-16T16:58:51;11.63;;;2.85;;
69894;SDS011;57172;52.034;5.090;2022-10-16T17:01:20;9.85;;;2.85;;
69894;SDS011;57172;52.034;5.090;2022-10-16T17:03:49;7.63;;;2.57;;
69894;SDS011;57172;52.034;5.090;2022-10-16T17:06:22;12.07;;;2.70;;
69894;SDS011;57172;52.034;5.090;2022-10-16T17:08:52;9.07;;;2.85;;